createdAt,value
2022-12-26T00:02:00.276Z,37.22
2022-12-26T00:04:51.180Z,37.78
2022-12-26T00:07:18.813Z,36.30
2022-12-26T00:09:48.165Z,34.85
2022-12-26T00:12:17.312Z,38.97
2022-12-26T00:14:46.512Z,40.20
2022-12-26T00:17:17.207Z,42.80
2022-12-26T00:19:46.392Z,48.33
2022-12-26T00:22:16.058Z,43.95
2022-12-26T00:24:45.268Z,37.60
2022-12-26T00:27:14.484Z,46.90
2022-12-26T00:29:43.747Z,46.83
2022-12-26T00:32:12.914Z,46.20
2022-12-26T00:34:43.684Z,45.92
2022-12-26T00:37:12.777Z,43.05
2022-12-26T00:39:41.879Z,47.28
2022-12-26T00:42:11.012Z,49.00
2022-12-26T00:44:40.150Z,44.22
2022-12-26T00:47:09.511Z,40.92
2022-12-26T00:50:13.960Z,38.60
2022-12-26T00:52:29.407Z,37.55
2022-12-26T00:54:58.525Z,32.58
2022-12-26T00:57:27.640Z,34.53
2022-12-26T00:59:56.862Z,40.08
2022-12-26T01:02:41.128Z,32.35
2022-12-26T01:05:13.038Z,29.50
2022-12-26T01:08:19.596Z,26.17
2022-12-26T01:10:32.704Z,30.05
2022-12-26T01:13:01.740Z,30.15
2022-12-26T01:15:30.825Z,33.88
2022-12-26T01:18:00.908Z,30.60
2022-12-26T01:20:30.191Z,28.45
2022-12-26T01:23:00.904Z,29.92
2022-12-26T01:25:30.124Z,31.08
2022-12-26T01:27:59.245Z,32.92
2022-12-26T01:30:28.549Z,34.13
2022-12-26T01:32:57.932Z,35.55
2022-12-26T01:35:27.048Z,35.35
2022-12-26T01:37:56.601Z,37.03
2022-12-26T01:40:27.696Z,31.55
2022-12-26T01:42:56.906Z,32.08
2022-12-26T01:45:29.967Z,39.22
2022-12-26T01:48:05.023Z,36.13
2022-12-26T01:50:42.878Z,30.27
2022-12-26T01:53:18.399Z,28.33
2022-12-26T01:55:53.961Z,27.02
2022-12-26T01:58:28.888Z,33.70
2022-12-26T02:00:58.567Z,46.42
2022-12-26T02:03:45.594Z,37.35
2022-12-26T02:06:16.233Z,35.05
2022-12-26T02:08:47.612Z,34.42
2022-12-26T02:11:24.039Z,29.13
2022-12-26T02:13:55.012Z,31.70
2022-12-26T02:16:25.738Z,33.42
2022-12-26T02:18:55.187Z,32.50
2022-12-26T02:21:56.341Z,43.78
2022-12-26T02:25:06.314Z,44.88
2022-12-26T02:28:23.460Z,47.67
2022-12-26T02:31:01.441Z,41.33
2022-12-26T02:33:56.575Z,42.22
2022-12-26T02:36:58.115Z,40.90
2022-12-26T02:39:52.831Z,37.50
2022-12-26T02:42:33.182Z,35.60
2022-12-26T02:45:30.831Z,36.08
2022-12-26T02:48:08.849Z,31.08
2022-12-26T02:51:11.662Z,27.02
2022-12-26T02:54:09.027Z,28.73
2022-12-26T02:57:00.941Z,32.30
2022-12-26T02:59:57.639Z,29.88
2022-12-26T03:02:52.340Z,34.50
2022-12-26T03:05:47.631Z,32.58
2022-12-26T03:08:45.320Z,34.58
2022-12-26T03:11:32.211Z,31.27
2022-12-26T03:14:12.273Z,35.60
2022-12-26T03:16:59.550Z,37.47
2022-12-26T03:19:32.427Z,33.53
2022-12-26T03:22:25.898Z,32.22
2022-12-26T03:25:12.864Z,30.08
2022-12-26T03:27:42.062Z,29.15
2022-12-26T03:30:25.755Z,31.77
2022-12-26T03:32:58.286Z,38.25
2022-12-26T03:35:33.720Z,31.98
2022-12-26T03:38:12.944Z,30.48
2022-12-26T03:41:11.640Z,31.10
2022-12-26T03:44:24.550Z,30.60
2022-12-26T03:47:28.448Z,27.38
2022-12-26T03:50:21.865Z,37.78
2022-12-26T03:53:20.482Z,36.83
2022-12-26T03:56:16.508Z,28.02
2022-12-26T03:59:09.939Z,31.20
2022-12-26T04:02:01.780Z,35.20
2022-12-26T04:04:51.734Z,32.35
2022-12-26T04:07:55.836Z,37.42
2022-12-26T04:10:50.089Z,31.40
2022-12-26T04:13:43.451Z,28.85
2022-12-26T04:16:36.701Z,35.53
2022-12-26T04:19:27.934Z,24.98
2022-12-26T04:22:23.143Z,22.23
2022-12-26T04:25:18.409Z,30.63
2022-12-26T04:28:05.088Z,35.22
2022-12-26T04:30:56.827Z,28.15
2022-12-26T04:33:50.194Z,31.92
2022-12-26T04:36:45.816Z,33.95
2022-12-26T04:39:36.063Z,32.95
2022-12-26T04:42:24.275Z,37.05
2022-12-26T04:44:54.469Z,35.78
2022-12-26T04:47:25.312Z,36.53
2022-12-26T04:50:12.033Z,34.05
2022-12-26T04:52:58.787Z,26.43
2022-12-26T04:55:29.830Z,28.17
2022-12-26T04:57:59.481Z,20.77
2022-12-26T05:00:30.295Z,26.40
2022-12-26T05:03:19.555Z,28.83
2022-12-26T05:06:10.590Z,24.63
2022-12-26T05:09:00.365Z,27.10
2022-12-26T05:11:31.768Z,26.13
2022-12-26T05:14:01.801Z,26.50
2022-12-26T05:16:49.090Z,23.05
2022-12-26T05:19:37.534Z,26.55
2022-12-26T05:22:24.757Z,24.70
2022-12-26T05:25:11.523Z,32.10
2022-12-26T05:28:02.356Z,32.28
2022-12-26T05:30:31.648Z,28.65
2022-12-26T05:33:18.039Z,24.45
2022-12-26T05:35:48.478Z,24.13
2022-12-26T05:38:17.623Z,24.27
2022-12-26T05:40:46.872Z,35.53
2022-12-26T05:43:15.964Z,34.92
2022-12-26T05:45:45.081Z,28.98
2022-12-26T05:48:16.567Z,25.75
2022-12-26T05:50:45.740Z,23.48
2022-12-26T05:53:16.386Z,30.90
2022-12-26T05:55:45.453Z,21.08
2022-12-26T05:58:14.576Z,22.55
2022-12-26T06:00:43.609Z,21.67
2022-12-26T06:03:12.878Z,24.25
2022-12-26T06:05:42.560Z,21.27
2022-12-26T06:08:11.618Z,21.58
2022-12-26T06:10:42.201Z,23.45
2022-12-26T06:13:11.546Z,27.27
2022-12-26T06:15:40.827Z,26.67
2022-12-26T06:18:09.909Z,28.10
2022-12-26T06:20:40.625Z,23.67
2022-12-26T06:23:10.024Z,28.20
2022-12-26T06:25:39.132Z,29.52
2022-12-26T06:28:10.854Z,27.77
2022-12-26T06:30:40.099Z,23.05
2022-12-26T06:33:09.343Z,23.38
2022-12-26T06:35:38.471Z,28.58
2022-12-26T06:38:07.695Z,27.50
2022-12-26T06:40:40.721Z,24.95
2022-12-26T06:43:11.760Z,29.77
2022-12-26T06:45:41.048Z,28.25
2022-12-26T06:48:10.451Z,23.65
2022-12-26T06:50:39.482Z,23.92
2022-12-26T06:53:08.713Z,27.10
2022-12-26T06:55:37.805Z,26.95
2022-12-26T06:58:07.003Z,25.70
2022-12-26T07:00:37.655Z,34.53
2022-12-26T07:03:06.926Z,33.47
2022-12-26T07:05:37.536Z,29.77
2022-12-26T07:08:07.840Z,31.20
2022-12-26T07:10:38.013Z,33.92
2022-12-26T07:13:07.104Z,30.88
2022-12-26T07:15:37.623Z,33.33
2022-12-26T07:18:06.802Z,27.85
2022-12-26T07:20:35.965Z,26.08
2022-12-26T07:23:05.019Z,23.92
2022-12-26T07:25:34.066Z,31.05
2022-12-26T07:28:03.069Z,24.95
2022-12-26T07:30:32.267Z,23.85
2022-12-26T07:33:02.806Z,28.02
2022-12-26T07:35:32.158Z,25.27
2022-12-26T07:38:01.210Z,20.58
2022-12-26T07:40:30.377Z,22.98
2022-12-26T07:42:59.416Z,22.45
2022-12-26T07:45:28.625Z,19.70
2022-12-26T07:47:59.740Z,19.88
2022-12-26T07:50:30.667Z,25.02
2022-12-26T07:53:01.001Z,27.38
2022-12-26T07:55:30.208Z,27.00
2022-12-26T07:57:59.403Z,24.00
2022-12-26T08:00:28.486Z,28.77
2022-12-26T08:03:04.742Z,27.88
2022-12-26T08:05:37.514Z,24.95
2022-12-26T08:08:06.694Z,23.60
2022-12-26T08:10:35.807Z,24.70
2022-12-26T08:13:05.059Z,25.58
2022-12-26T08:15:34.383Z,24.35
2022-12-26T08:18:03.620Z,21.55
2022-12-26T08:20:33.013Z,23.30
2022-12-26T08:23:03.501Z,18.45
2022-12-26T08:25:32.764Z,19.88
2022-12-26T08:28:02.013Z,16.45
2022-12-26T08:30:31.153Z,19.95
2022-12-26T08:33:00.369Z,25.88
2022-12-26T08:35:30.285Z,20.95
2022-12-26T08:37:59.329Z,19.42
2022-12-26T08:40:42.747Z,21.15
2022-12-26T08:46:05.426Z,27.70
2022-12-26T08:48:35.524Z,27.27
2022-12-26T08:51:09.759Z,23.48
2022-12-26T08:53:39.351Z,26.55
2022-12-26T08:56:14.710Z,22.33
2022-12-26T08:58:44.643Z,24.42
2022-12-26T09:01:17.389Z,27.85
2022-12-26T09:03:47.217Z,18.88
2022-12-26T09:06:17.252Z,18.75
2022-12-26T09:08:46.393Z,21.45
2022-12-26T09:11:23.210Z,18.60
2022-12-26T09:16:23.793Z,17.52
2022-12-26T09:18:57.356Z,18.73
2022-12-26T09:21:27.331Z,17.30
2022-12-26T09:23:59.136Z,16.67
2022-12-26T09:26:30.429Z,20.35
2022-12-26T09:29:00.490Z,17.75
2022-12-26T09:31:32.216Z,18.52
2022-12-26T09:34:03.755Z,17.65
2022-12-26T09:36:38.310Z,15.07
2022-12-26T09:39:09.339Z,20.88
2022-12-26T09:41:59.450Z,20.20
2022-12-26T09:44:43.931Z,20.65
2022-12-26T09:47:33.894Z,23.83
2022-12-26T09:50:13.921Z,22.98
2022-12-26T09:52:49.863Z,23.88
2022-12-26T09:55:38.520Z,22.40
2022-12-26T09:58:20.416Z,18.10
2022-12-26T10:00:54.973Z,18.05
2022-12-26T10:03:24.891Z,18.38
2022-12-26T10:06:18.092Z,19.75
2022-12-26T10:09:19.228Z,20.90
2022-12-26T10:12:11.233Z,23.48
2022-12-26T10:15:00.556Z,21.52
2022-12-26T10:17:38.033Z,23.08
2022-12-26T10:20:24.386Z,23.23
2022-12-26T10:23:28.376Z,21.30
2022-12-26T10:26:05.396Z,19.08
2022-12-26T10:28:40.919Z,17.35
2022-12-26T10:31:20.352Z,17.52
2022-12-26T10:33:57.489Z,18.58
2022-12-26T10:36:39.290Z,17.20
2022-12-26T10:39:18.858Z,16.25
2022-12-26T10:41:52.365Z,19.15
2022-12-26T10:44:27.640Z,15.70
2022-12-26T10:47:26.427Z,15.82
2022-12-26T10:49:59.814Z,18.38
2022-12-26T10:52:35.124Z,24.33
2022-12-26T10:55:29.718Z,20.63
2022-12-26T10:57:55.877Z,17.30
2022-12-26T11:00:28.495Z,24.13
2022-12-26T11:03:08.206Z,17.60
2022-12-26T11:06:10.075Z,19.85
2022-12-26T11:08:43.256Z,19.27
2022-12-26T11:11:21.226Z,22.83
2022-12-26T11:14:02.085Z,23.15
2022-12-26T11:16:35.761Z,17.90
2022-12-26T11:19:06.583Z,18.70
2022-12-26T11:21:38.194Z,18.23
2022-12-26T11:24:20.744Z,19.23
2022-12-26T11:26:50.264Z,17.02
2022-12-26T11:29:21.831Z,21.45
2022-12-26T11:31:57.696Z,15.82
2022-12-26T11:34:34.669Z,19.20
2022-12-26T11:37:06.479Z,16.90
2022-12-26T11:39:39.108Z,20.90
2022-12-26T11:42:12.483Z,16.85
2022-12-26T11:44:45.632Z,20.58
2022-12-26T11:47:18.296Z,22.05
2022-12-26T11:49:59.359Z,15.85
2022-12-26T11:52:38.581Z,17.00
2022-12-26T11:55:34.013Z,17.77
2022-12-26T11:58:16.772Z,19.60
2022-12-26T12:01:18.010Z,18.98
2022-12-26T12:03:50.435Z,14.40
2022-12-26T12:06:48.040Z,15.00
2022-12-26T12:09:25.432Z,12.68
2022-12-26T12:14:54.193Z,15.95
2022-12-26T12:17:30.005Z,13.48
2022-12-26T12:20:20.338Z,14.80
2022-12-26T12:23:07.718Z,13.70
2022-12-26T12:25:51.463Z,18.35
2022-12-26T12:29:21.340Z,12.98
2022-12-26T12:32:13.999Z,13.70
2022-12-26T12:35:14.454Z,14.98
2022-12-26T12:38:12.667Z,12.45
2022-12-26T12:40:50.828Z,13.70
2022-12-26T12:43:29.871Z,14.05
2022-12-26T12:46:12.583Z,14.20
2022-12-26T12:49:05.064Z,13.38
2022-12-26T12:51:43.770Z,11.88
2022-12-26T12:54:50.179Z,18.23
2022-12-26T12:57:31.465Z,12.35
2022-12-26T13:00:16.266Z,14.63
2022-12-26T13:02:53.577Z,11.77
2022-12-26T13:08:20.057Z,13.52
2022-12-26T13:10:55.780Z,14.63
2022-12-26T13:13:37.131Z,15.68
2022-12-26T13:16:14.342Z,17.00
2022-12-26T13:18:51.820Z,17.23
2022-12-26T13:24:18.470Z,13.75
2022-12-26T13:26:58.271Z,15.07
2022-12-26T13:29:40.500Z,12.70
2022-12-26T13:32:21.909Z,16.13
2022-12-26T13:34:53.565Z,16.90
2022-12-26T13:37:57.157Z,20.67
2022-12-26T13:40:30.914Z,11.98
2022-12-26T13:43:26.819Z,14.40
2022-12-26T13:45:58.249Z,13.05
2022-12-26T13:49:27.229Z,13.07
2022-12-26T13:51:59.820Z,12.00
2022-12-26T13:54:30.710Z,14.52
2022-12-26T13:57:38.767Z,11.05
2022-12-26T14:00:20.584Z,12.85
2022-12-26T14:03:45.386Z,12.25
2022-12-26T14:06:50.548Z,11.30
2022-12-26T14:09:58.388Z,11.48
2022-12-26T14:13:02.074Z,11.30
2022-12-26T14:15:49.029Z,12.32
2022-12-26T14:18:42.677Z,9.77
2022-12-26T14:21:40.630Z,11.65
2022-12-26T14:24:32.691Z,13.35
2022-12-26T14:27:26.213Z,11.82
2022-12-26T14:30:18.713Z,12.52
2022-12-26T14:33:20.042Z,10.00
2022-12-26T14:36:15.259Z,11.63
2022-12-26T14:38:53.307Z,11.65
2022-12-26T14:41:41.133Z,12.90
2022-12-26T14:44:41.554Z,13.45
2022-12-26T14:47:12.115Z,15.27
2022-12-26T14:49:44.228Z,14.20
2022-12-26T14:52:43.384Z,11.05
2022-12-26T14:55:50.367Z,13.27
2022-12-26T14:58:43.782Z,15.30
2022-12-26T15:01:50.133Z,16.00
2022-12-26T15:05:09.551Z,12.35
2022-12-26T15:08:39.633Z,17.20
2022-12-26T15:14:40.620Z,12.23
2022-12-26T15:17:23.659Z,17.45
2022-12-26T15:20:38.778Z,15.85
2022-12-26T15:24:15.529Z,15.80
2022-12-26T15:27:15.251Z,16.30
2022-12-26T15:30:20.416Z,15.13
2022-12-26T15:32:59.981Z,13.40
2022-12-26T15:35:35.763Z,17.27
2022-12-26T15:38:28.972Z,14.63
2022-12-26T15:41:12.977Z,16.48
2022-12-26T15:43:58.919Z,16.40
2022-12-26T15:46:32.258Z,15.52
2022-12-26T15:49:24.758Z,13.32
2022-12-26T15:52:10.373Z,17.63
2022-12-26T15:55:25.943Z,16.58
2022-12-26T15:58:03.642Z,17.02
2022-12-26T16:00:35.727Z,16.15
2022-12-26T16:03:35.704Z,18.55
2022-12-26T16:06:30.744Z,15.32
2022-12-26T16:09:26.309Z,13.35
2022-12-26T16:11:58.005Z,11.10
2022-12-26T16:14:33.679Z,12.00
2022-12-26T16:17:24.078Z,24.77
2022-12-26T16:19:54.305Z,43.63
2022-12-26T16:22:46.983Z,36.28
2022-12-26T16:25:26.180Z,36.63
2022-12-26T16:27:58.600Z,30.50
2022-12-26T16:30:38.552Z,21.65
2022-12-26T16:33:08.854Z,24.77
2022-12-26T16:35:42.054Z,40.40
2022-12-26T16:38:17.063Z,33.72
2022-12-26T16:40:48.376Z,28.95
2022-12-26T16:43:28.121Z,26.73
2022-12-26T16:46:04.115Z,32.17
2022-12-26T16:48:35.343Z,26.50
2022-12-26T16:51:07.876Z,31.02
2022-12-26T16:53:45.920Z,27.73
2022-12-26T16:56:27.746Z,26.63
2022-12-26T16:59:04.992Z,26.85
2022-12-26T17:04:09.290Z,28.23
2022-12-26T17:06:43.306Z,24.92
2022-12-26T17:09:17.383Z,20.38
2022-12-26T17:11:57.099Z,25.10
2022-12-26T17:14:29.944Z,30.88
2022-12-26T17:17:06.102Z,26.13
2022-12-26T17:19:38.216Z,23.25
2022-12-26T17:22:23.584Z,24.58
2022-12-26T17:25:13.640Z,25.17
2022-12-26T17:27:44.361Z,22.98
2022-12-26T17:30:29.690Z,35.97
2022-12-26T17:33:05.831Z,25.40
2022-12-26T17:36:25.266Z,26.95
2022-12-26T17:38:29.234Z,29.30
2022-12-26T17:41:07.712Z,32.00
2022-12-26T17:43:39.385Z,31.88
2022-12-26T17:46:13.491Z,49.78
2022-12-26T17:48:44.559Z,35.10
2022-12-26T17:51:18.414Z,31.75
2022-12-26T17:53:51.994Z,33.50
2022-12-26T17:56:27.300Z,30.98
2022-12-26T17:58:56.491Z,34.50
2022-12-26T18:01:25.830Z,41.22
2022-12-26T18:03:56.448Z,41.72
2022-12-26T18:06:26.802Z,36.63
2022-12-26T18:08:56.952Z,46.50
2022-12-26T18:11:27.216Z,51.13
2022-12-26T18:13:56.436Z,49.35
2022-12-26T18:16:28.464Z,29.02
2022-12-26T18:19:00.836Z,30.20
2022-12-26T18:21:30.950Z,23.80
2022-12-26T18:24:00.280Z,14.52
2022-12-26T18:26:33.435Z,13.32
2022-12-26T18:29:03.209Z,14.85
2022-12-26T18:31:32.432Z,17.10
2022-12-26T18:34:03.163Z,15.40
2022-12-26T18:36:35.645Z,16.27
2022-12-26T18:39:06.048Z,24.35
2022-12-26T18:41:36.176Z,26.30
2022-12-26T18:44:05.535Z,33.15
2022-12-26T18:46:35.309Z,36.25
2022-12-26T18:49:05.970Z,40.30
2022-12-26T18:51:37.274Z,36.28
2022-12-26T18:54:06.659Z,39.47
2022-12-26T18:56:36.176Z,36.20
2022-12-26T18:59:05.410Z,32.20
2022-12-26T19:01:34.684Z,28.42
2022-12-26T19:04:05.857Z,35.67
2022-12-26T19:06:35.343Z,34.10
2022-12-26T19:09:04.717Z,31.75
2022-12-26T19:11:33.899Z,28.08
2022-12-26T19:14:04.638Z,29.05
2022-12-26T19:16:33.928Z,33.92
2022-12-26T19:19:03.170Z,51.03
2022-12-26T19:21:33.754Z,41.85
2022-12-26T19:24:02.905Z,36.00
2022-12-26T19:26:32.124Z,33.50
2022-12-26T19:29:01.194Z,34.83
2022-12-26T19:31:30.619Z,33.30
2022-12-26T19:33:59.811Z,50.42
2022-12-26T19:36:29.198Z,39.92
2022-12-26T19:38:59.830Z,35.20
2022-12-26T19:41:29.084Z,29.08
2022-12-26T19:43:59.486Z,41.50
2022-12-26T19:46:29.675Z,40.67
2022-12-26T19:48:58.902Z,36.28
2022-12-26T19:51:28.205Z,32.20
2022-12-26T19:53:59.758Z,28.45
2022-12-26T19:56:30.079Z,26.50
2022-12-26T19:59:00.646Z,29.88
2022-12-26T20:01:33.642Z,30.27
2022-12-26T20:04:05.890Z,27.63
2022-12-26T20:06:38.067Z,26.40
2022-12-26T20:09:11.771Z,26.75
2022-12-26T20:11:43.704Z,31.48
2022-12-26T20:14:16.126Z,28.33
2022-12-26T20:17:05.060Z,26.88
2022-12-26T20:19:35.848Z,30.63
2022-12-26T20:22:06.633Z,29.38
2022-12-26T20:24:37.474Z,35.47
2022-12-26T20:27:06.828Z,34.35
2022-12-26T20:29:35.957Z,32.45
2022-12-26T20:32:05.318Z,35.17
2022-12-26T20:34:34.669Z,42.95
2022-12-26T20:37:04.100Z,48.40
2022-12-26T20:39:33.200Z,60.15
2022-12-26T20:42:04.154Z,51.78
2022-12-26T20:44:33.417Z,47.75
2022-12-26T20:47:02.567Z,40.58
2022-12-26T20:49:31.859Z,37.05
2022-12-26T20:52:01.162Z,44.72
2022-12-26T20:54:30.913Z,36.40
2022-12-26T20:57:00.245Z,42.25
2022-12-26T20:59:30.737Z,43.58
2022-12-26T21:02:00.103Z,46.47
2022-12-26T21:04:29.740Z,45.50
2022-12-26T21:06:59.119Z,41.42
2022-12-26T21:09:28.339Z,38.83
2022-12-26T21:11:57.831Z,42.47
2022-12-26T21:14:26.986Z,34.08
2022-12-26T21:16:59.879Z,33.17
2022-12-26T21:19:30.677Z,38.88
2022-12-26T21:22:00.751Z,34.70
2022-12-26T21:24:32.979Z,31.30
2022-12-26T21:27:02.463Z,34.83
2022-12-26T21:29:35.257Z,34.15
2022-12-26T21:32:09.246Z,29.50
2022-12-26T21:34:38.982Z,43.60
2022-12-26T21:37:34.107Z,58.53
2022-12-26T21:40:03.516Z,38.70
2022-12-26T21:42:33.204Z,32.55
2022-12-26T21:45:02.436Z,29.88
2022-12-26T21:47:32.965Z,32.60
2022-12-26T21:50:02.112Z,32.70
2022-12-26T21:52:31.474Z,36.70
2022-12-26T21:55:18.191Z,27.13
2022-12-26T21:57:47.305Z,34.00
2022-12-26T22:00:17.348Z,33.05
2022-12-26T22:03:05.487Z,30.77
2022-12-26T22:05:38.431Z,35.85
2022-12-26T22:08:11.310Z,34.45
2022-12-26T22:11:02.893Z,31.33
2022-12-26T22:13:38.727Z,27.35
2022-12-26T22:16:11.287Z,28.05
2022-12-26T22:18:46.539Z,32.00
2022-12-26T22:21:18.385Z,30.23
2022-12-26T22:23:50.432Z,36.40
2022-12-26T22:26:22.033Z,36.95
2022-12-26T22:28:51.330Z,33.75
2022-12-26T22:31:23.704Z,44.53
2022-12-26T22:33:57.587Z,44.95
2022-12-26T22:36:28.303Z,39.78
2022-12-26T22:38:57.808Z,41.75
2022-12-26T22:41:27.382Z,37.72
2022-12-26T22:43:57.636Z,33.00
2022-12-26T22:46:27.040Z,33.63
2022-12-26T22:48:57.605Z,36.85
2022-12-26T22:51:28.073Z,42.45
2022-12-26T22:54:00.299Z,41.22
2022-12-26T22:56:30.073Z,43.15
2022-12-26T22:59:01.046Z,41.08
2022-12-26T23:01:30.500Z,44.20
2022-12-26T23:04:02.117Z,49.13
2022-12-26T23:06:36.134Z,47.10
2022-12-26T23:09:12.705Z,50.55
2022-12-26T23:11:42.718Z,52.05
2022-12-26T23:14:14.068Z,54.35
2022-12-26T23:16:51.566Z,61.05
2022-12-26T23:20:01.471Z,55.17
2022-12-26T23:22:31.449Z,53.38
2022-12-26T23:25:00.568Z,54.33
2022-12-26T23:27:47.196Z,50.53
2022-12-26T23:30:19.117Z,53.38
2022-12-26T23:32:51.565Z,47.28
2022-12-26T23:35:23.484Z,39.72
2022-12-26T23:37:53.120Z,39.60
2022-12-26T23:40:22.971Z,41.25
2022-12-26T23:42:52.187Z,35.28
2022-12-26T23:45:21.490Z,42.00
2022-12-26T23:47:50.645Z,42.10
2022-12-26T23:50:21.296Z,37.95
2022-12-26T23:52:50.368Z,38.40
2022-12-26T23:55:19.640Z,37.55
2022-12-26T23:57:48.801Z,36.90
